Lawson Army Air Field (Fort Benning)
KLSF : rendu visible

Aérodrome :











RETROUVEZ-NOUS SUR...

 
LOGIN :

S'inscrire | Disclaimer

   EN    FR    IT 

 









Légende :    VFR   VFR Marginal   IFR   IFR Intensif   IFR Très Intensif
Visi : 
Plafond : 
>= 8 km
>= 3000ft
5 à 8 km
1000 à 3000 ft
1500m à 5 km
500 à 1000 ft
800 à 1500m
200 à 500 ft
< 800m
< 200 ft
Symboles :   Orages  Brouillard  Fortes neiges  Fortes précipitations  Vent > 20 kt






- Altitude de l'aérodrome : 232 ft


KLSF - Lawson Army Air Field (Fort Benning)

DERNIER METAR :
  • 221156Z AUTO 00000KT 10SM CLR M05/M08 A3036 RMK AO2 SLP289 T10551083 11004 21065 50004

METARs EXPIRÉS :
  • 221056Z AUTO 00000KT 10SM CLR M05/M09 A3035 RMK AO2 SLP285 T10551087
  • 220956Z AUTO 00000KT 10SM CLR M05/M09 A3036 RMK AO2 SLP288 T10501088

TAF TAF KLSF
Valide du 22 à 09h jusqu'au 23 à 15h UTC


220900Z 2209/2315 03008KT 9999 SKC QNH3029INS
BECMG 2221/2222 07004KT 9999 SCT200 QNH3028INS
BECMG 2304/2305 09004KT 9999 BKN130 QNH3025INS
BECMG 2308/2309 09009KT 9000 -DZ BKN040 QNH3022INS TX11/2220Z TNM05/2211Z



MET'MAP, la Météo Aéronautique d'un coup d'oeil ! - Copyright ORBIFLY Décembre 2007 - Disclaimer

ORBIFLY MET'MAP TEAM :

Programmation & Développement : Alexandra Zaïnal
Sur une idée originale de : Baudouin d'Aumeries
Assistance à la programmation : Marc-Olivier Méhu
Soutien technique & logistique : Manuel Goepfert

Contact : metmap@orbifly.com




SOURCES & CREDITS :

   NOAA       Earth
Advisory